createdAt,value
2023-01-09T00:01:12.739Z,101720.34
2023-01-09T00:03:40.022Z,101707.06
2023-01-09T00:06:07.556Z,101713.19
2023-01-09T00:08:34.754Z,101712.19
2023-01-09T00:11:02.247Z,101717.75
2023-01-09T00:13:29.381Z,101692.09
2023-01-09T00:16:15.910Z,101708.03
2023-01-09T00:18:43.158Z,101711.88
2023-01-09T00:21:11.981Z,101727.31
2023-01-09T00:23:39.354Z,101728.13
2023-01-09T00:26:18.109Z,101715.19
2023-01-09T00:28:46.672Z,101699.25
2023-01-09T00:31:14.406Z,101730.44
2023-01-09T00:33:44.771Z,101709.72
2023-01-09T00:36:14.287Z,101723.44
2023-01-09T00:38:41.596Z,101715.91
2023-01-09T00:41:14.781Z,101721.06
2023-01-09T00:43:44.462Z,101733.63
2023-01-09T00:46:13.216Z,101723.88
2023-01-09T00:48:42.790Z,101727.72
2023-01-09T00:51:10.222Z,101727.88
2023-01-09T00:53:41.620Z,101741.19
2023-01-09T00:56:11.862Z,101733.69
2023-01-09T00:58:39.199Z,101700.91
2023-01-09T01:01:06.725Z,101714.59
2023-01-09T01:03:34.258Z,101710.91
2023-01-09T01:06:20.111Z,101688.84
2023-01-09T01:08:47.337Z,101707.34
2023-01-09T01:11:14.961Z,101704.25
2023-01-09T01:13:42.974Z,101707.53
2023-01-09T01:16:13.297Z,101709.03
2023-01-09T01:18:41.766Z,101708.59
2023-01-09T01:21:10.411Z,101684.75
2023-01-09T01:23:38.368Z,101679.63
2023-01-09T01:26:14.511Z,101671.94
2023-01-09T01:28:41.736Z,101661.69
2023-01-09T01:31:09.529Z,101683.69
2023-01-09T01:33:36.656Z,101685.44
2023-01-09T01:36:06.907Z,101665.75
2023-01-09T01:38:35.102Z,101653.56
2023-01-09T01:41:04.010Z,101662.50
2023-01-09T01:43:51.352Z,101659.72
2023-01-09T01:46:18.953Z,101659.06
2023-01-09T01:48:48.222Z,101667.72
2023-01-09T01:51:18.532Z,101661.47
2023-01-09T01:53:54.247Z,101645.81
2023-01-09T01:56:36.081Z,101640.34
2023-01-09T01:59:20.477Z,101647.19
2023-01-09T02:01:53.978Z,101659.72
2023-01-09T02:04:21.228Z,101658.31
2023-01-09T02:06:51.222Z,101645.88
2023-01-09T02:09:23.029Z,101649.88
2023-01-09T02:11:56.514Z,101651.91
2023-01-09T02:14:27.406Z,101654.38
2023-01-09T02:17:06.148Z,101644.22
2023-01-09T02:19:39.278Z,101646.34
2023-01-09T02:22:18.374Z,101656.19
2023-01-09T02:25:13.481Z,101643.84
2023-01-09T02:28:18.355Z,101632.84
2023-01-09T02:30:51.449Z,101624.97
2023-01-09T02:33:49.534Z,101642.78
2023-01-09T02:36:31.962Z,101626.81
2023-01-09T02:39:28.333Z,101622.13
2023-01-09T02:42:19.391Z,101619.00
2023-01-09T02:44:46.984Z,101627.03
2023-01-09T02:47:17.277Z,101622.28
2023-01-09T02:49:48.616Z,101622.31
2023-01-09T02:52:35.130Z,101616.66
2023-01-09T02:55:18.797Z,101607.38
2023-01-09T02:58:28.435Z,101599.03
2023-01-09T03:01:20.432Z,101599.94
2023-01-09T03:04:02.500Z,101576.28
2023-01-09T03:06:45.866Z,101599.13
2023-01-09T03:09:22.604Z,101591.38
2023-01-09T03:12:00.044Z,101582.97
2023-01-09T03:14:30.873Z,101613.75
2023-01-09T03:17:03.843Z,101595.34
2023-01-09T03:19:34.137Z,101577.00
2023-01-09T03:22:02.255Z,101593.66
2023-01-09T03:24:29.653Z,101596.56
2023-01-09T03:26:56.970Z,101586.63
2023-01-09T03:29:24.392Z,101580.91
2023-01-09T03:31:51.780Z,101598.25
2023-01-09T03:34:19.136Z,101570.06
2023-01-09T03:36:46.499Z,101584.50
2023-01-09T03:39:13.766Z,101558.84
2023-01-09T03:41:41.045Z,101578.69
2023-01-09T03:44:08.149Z,101585.47
2023-01-09T03:46:35.428Z,101586.28
2023-01-09T03:49:02.689Z,101581.66
2023-01-09T03:51:29.834Z,101575.38
2023-01-09T03:53:57.070Z,101585.84
2023-01-09T03:56:25.740Z,101582.34
2023-01-09T03:58:53.718Z,101574.84
2023-01-09T04:01:21.305Z,101559.25
2023-01-09T04:03:48.649Z,101562.81
2023-01-09T04:06:15.869Z,101553.84
2023-01-09T04:08:42.982Z,101577.22
2023-01-09T04:11:10.363Z,101567.13
2023-01-09T04:13:37.809Z,101583.19
2023-01-09T04:16:05.595Z,101570.06
2023-01-09T04:18:32.915Z,101576.97
2023-01-09T04:21:00.177Z,101598.59
2023-01-09T04:23:28.550Z,101601.25
2023-01-09T04:25:55.771Z,101587.63
2023-01-09T04:28:22.998Z,101574.09
2023-01-09T04:30:50.263Z,101572.56
2023-01-09T04:33:17.663Z,101578.28
2023-01-09T04:35:45.674Z,101571.09
2023-01-09T04:38:13.134Z,101540.59
2023-01-09T04:40:40.333Z,101575.94
2023-01-09T04:43:07.626Z,101563.81
2023-01-09T04:46:07.546Z,101564.13
2023-01-09T04:48:34.673Z,101562.06
2023-01-09T04:51:01.991Z,101566.97
2023-01-09T04:53:29.165Z,101574.09
2023-01-09T04:55:56.260Z,101552.91
2023-01-09T04:58:23.537Z,101562.19
2023-01-09T05:00:50.710Z,101557.41
2023-01-09T05:03:17.831Z,101559.03
2023-01-09T05:05:45.113Z,101552.19
2023-01-09T05:08:12.343Z,101551.88
2023-01-09T05:10:39.522Z,101521.00
2023-01-09T05:13:06.812Z,101558.28
2023-01-09T05:15:34.107Z,101502.78
2023-01-09T05:18:01.360Z,101492.88
2023-01-09T05:20:28.737Z,101476.47
2023-01-09T05:22:56.067Z,101496.13
2023-01-09T05:25:23.443Z,101495.75
2023-01-09T05:27:52.339Z,101474.00
2023-01-09T05:30:21.391Z,101516.44
2023-01-09T05:32:57.211Z,101534.53
2023-01-09T05:35:26.451Z,101468.22
2023-01-09T05:37:55.013Z,101528.03
2023-01-09T05:40:24.817Z,101543.22
2023-01-09T05:42:56.033Z,101549.28
2023-01-09T05:45:23.146Z,101534.81
2023-01-09T05:47:50.475Z,101529.34
2023-01-09T05:50:46.086Z,101549.41
2023-01-09T05:56:44.530Z,101482.06
2023-01-09T05:59:11.870Z,101498.09
2023-01-09T06:01:39.425Z,101482.09
2023-01-09T06:04:06.852Z,101529.88
2023-01-09T06:06:35.051Z,101521.84
2023-01-09T06:09:03.758Z,101428.91
2023-01-09T06:11:31.048Z,101507.47
2023-01-09T06:13:58.392Z,101508.66
2023-01-09T06:16:25.849Z,101507.84
2023-01-09T06:18:53.464Z,101473.78
2023-01-09T06:21:20.840Z,101441.34
2023-01-09T06:23:48.164Z,101523.47
2023-01-09T06:26:15.588Z,101485.81
2023-01-09T06:28:44.647Z,101525.47
2023-01-09T06:31:12.352Z,101523.09
2023-01-09T06:33:39.479Z,101537.91
2023-01-09T06:36:07.142Z,101525.47
2023-01-09T06:38:34.512Z,101501.44
2023-01-09T06:41:01.824Z,101541.50
2023-01-09T06:43:29.169Z,101541.50
2023-01-09T06:45:57.034Z,101561.94
2023-01-09T06:48:27.312Z,101542.31
2023-01-09T06:50:54.713Z,101543.53
2023-01-09T06:53:21.942Z,101543.91
2023-01-09T06:55:49.409Z,101543.13
2023-01-09T06:58:16.849Z,101535.88
2023-01-09T07:00:44.069Z,101527.47
2023-01-09T07:03:11.779Z,101553.13
2023-01-09T07:05:42.249Z,101553.91
2023-01-09T07:08:10.449Z,101549.47
2023-01-09T07:10:37.845Z,101532.69
2023-01-09T07:13:05.023Z,101537.91
2023-01-09T07:15:33.082Z,101545.50
2023-01-09T07:18:00.468Z,101548.72
2023-01-09T07:20:27.664Z,101544.72
2023-01-09T07:22:54.815Z,101549.53
2023-01-09T07:25:22.217Z,101558.75
2023-01-09T07:27:49.475Z,101525.88
2023-01-09T07:30:17.060Z,101542.69
2023-01-09T07:32:44.453Z,101541.50
2023-01-09T07:35:11.715Z,101542.72
2023-01-09T07:38:25.040Z,101545.09
2023-01-09T07:40:52.195Z,101530.28
2023-01-09T07:43:28.374Z,101476.50
2023-01-09T07:45:56.160Z,101507.44
2023-01-09T07:48:23.586Z,101519.84
2023-01-09T07:50:50.941Z,101531.09
2023-01-09T07:53:18.564Z,101514.66
2023-01-09T07:55:46.027Z,101545.94
2023-01-09T07:58:13.313Z,101545.53
2023-01-09T08:00:41.757Z,101554.34
2023-01-09T08:03:08.946Z,101543.91
2023-01-09T08:05:37.215Z,101553.50
2023-01-09T08:08:05.156Z,101548.69
2023-01-09T08:10:32.388Z,101532.66
2023-01-09T08:12:59.638Z,101533.84
2023-01-09T08:15:26.857Z,101510.56
2023-01-09T08:17:54.188Z,101517.41
2023-01-09T08:20:21.488Z,101535.44
2023-01-09T08:22:50.152Z,101547.50
2023-01-09T08:25:18.316Z,101536.66
2023-01-09T08:27:45.747Z,101542.66
2023-01-09T08:30:13.442Z,101552.66
2023-01-09T08:32:41.516Z,101532.97
2023-01-09T08:35:09.415Z,101533.38
2023-01-09T08:37:36.616Z,101541.41
2023-01-09T08:40:04.094Z,101503.69
2023-01-09T08:42:50.919Z,101516.84
2023-01-09T08:45:36.707Z,101499.56
2023-01-09T08:48:04.084Z,101511.69
2023-01-09T08:50:31.286Z,101516.50
2023-01-09T08:52:58.389Z,101505.28
2023-01-09T08:55:25.833Z,101506.09
2023-01-09T08:57:54.796Z,101502.44
2023-01-09T09:00:24.321Z,101503.69
2023-01-09T09:02:53.420Z,101491.66
2023-01-09T09:05:21.671Z,101496.53
2023-01-09T09:07:50.376Z,101491.66
2023-01-09T09:10:18.062Z,101511.34
2023-01-09T09:12:48.155Z,101474.78
2023-01-09T09:15:24.108Z,101486.38
2023-01-09T09:17:56.380Z,101467.09
2023-01-09T09:20:26.184Z,101466.66
2023-01-09T09:22:53.616Z,101467.44
2023-01-09T09:25:21.276Z,101465.81
2023-01-09T09:27:49.221Z,101432.13
2023-01-09T09:30:18.615Z,101447.25
2023-01-09T09:32:46.420Z,101441.66
2023-01-09T09:35:14.084Z,101435.63
2023-01-09T09:37:42.048Z,101434.00
2023-01-09T09:40:27.989Z,101445.63
2023-01-09T09:43:44.397Z,101415.91
2023-01-09T09:46:37.744Z,101409.47
2023-01-09T09:49:18.195Z,101407.84
2023-01-09T09:52:26.746Z,101404.59
2023-01-09T09:54:54.818Z,101400.19
2023-01-09T09:57:32.763Z,101407.03
2023-01-09T10:00:00.509Z,101394.34
2023-01-09T10:02:41.771Z,101397.63
2023-01-09T10:05:21.461Z,101404.50
2023-01-09T10:07:51.504Z,101419.25
2023-01-09T10:10:47.423Z,101412.41
2023-01-09T10:13:37.262Z,101424.53
2023-01-09T10:16:49.588Z,101416.06
2023-01-09T10:19:35.416Z,101410.44
2023-01-09T10:22:27.112Z,101404.88
2023-01-09T10:25:35.776Z,101391.19
2023-01-09T10:28:40.644Z,101379.91
2023-01-09T10:31:21.511Z,101375.84
2023-01-09T10:34:11.370Z,101371.00
2023-01-09T10:36:53.400Z,101352.56
2023-01-09T10:39:30.490Z,101365.28
2023-01-09T10:42:04.560Z,101345.28
2023-01-09T10:44:40.072Z,101341.25
2023-01-09T10:47:17.588Z,101358.00
2023-01-09T10:49:47.566Z,101362.81
2023-01-09T10:52:20.761Z,101363.66
2023-01-09T10:55:02.828Z,101363.75
2023-01-09T10:57:42.880Z,101389.50
2023-01-09T11:00:23.567Z,101343.75
2023-01-09T11:02:53.023Z,101358.97
2023-01-09T11:05:31.826Z,101354.09
2023-01-09T11:08:05.982Z,101357.22
2023-01-09T11:10:51.263Z,101330.72
2023-01-09T11:13:26.021Z,101331.19
2023-01-09T11:16:00.790Z,101320.25
2023-01-09T11:18:28.187Z,101309.81
2023-01-09T11:20:55.545Z,101279.81
2023-01-09T11:23:33.458Z,101283.44
2023-01-09T11:26:03.061Z,101287.31
2023-01-09T11:28:30.620Z,101284.97
2023-01-09T11:31:02.519Z,101282.88
2023-01-09T11:33:47.194Z,101274.78
2023-01-09T11:36:16.016Z,101263.94
2023-01-09T11:38:57.642Z,101262.31
2023-01-09T11:41:36.088Z,101264.78
2023-01-09T11:44:05.021Z,101260.69
2023-01-09T11:46:38.570Z,101253.41
2023-01-09T11:49:14.973Z,101253.00
2023-01-09T11:51:43.550Z,101243.13
2023-01-09T11:54:36.637Z,101243.91
2023-01-09T11:57:04.181Z,101239.19
2023-01-09T11:59:31.900Z,101241.91
2023-01-09T12:02:23.577Z,101242.28
2023-01-09T12:05:09.639Z,101229.38
2023-01-09T12:07:51.011Z,101224.41
2023-01-09T12:11:06.776Z,101224.78
2023-01-09T12:13:58.783Z,101223.69
2023-01-09T12:16:26.072Z,101247.97
2023-01-09T12:19:28.005Z,101235.28
2023-01-09T12:25:17.817Z,101188.66
2023-01-09T12:27:56.966Z,101224.28
2023-01-09T12:30:24.134Z,101209.78
2023-01-09T12:33:46.837Z,101219.34
2023-01-09T12:36:22.343Z,101221.41
2023-01-09T12:38:54.925Z,101215.44
2023-01-09T12:41:42.923Z,101219.06
2023-01-09T12:44:38.120Z,101212.97
2023-01-09T12:47:15.926Z,101191.22
2023-01-09T12:50:17.022Z,101198.41
2023-01-09T12:52:49.791Z,101181.50
2023-01-09T12:55:24.710Z,101187.19
2023-01-09T12:57:56.301Z,101175.69
2023-01-09T13:00:42.127Z,101196.44
2023-01-09T13:03:37.796Z,101197.63
2023-01-09T13:06:13.445Z,101179.19
2023-01-09T13:09:06.770Z,101173.44
2023-01-09T13:11:49.657Z,101168.56
2023-01-09T13:14:25.670Z,101170.28
2023-01-09T13:16:57.225Z,101149.47
2023-01-09T13:19:39.578Z,101159.16
2023-01-09T13:22:08.098Z,101176.00
2023-01-09T13:24:43.343Z,101178.81
2023-01-09T13:27:20.249Z,101176.88
2023-01-09T13:29:52.541Z,101171.41
2023-01-09T13:32:32.019Z,100948.59
2023-01-09T13:35:01.414Z,101166.63
2023-01-09T13:37:37.180Z,101142.84
2023-01-09T13:40:06.644Z,101169.13
2023-01-09T13:42:39.055Z,101135.63
2023-01-09T13:48:29.443Z,101134.00
2023-01-09T13:51:16.479Z,101161.53
2023-01-09T13:53:46.950Z,101089.84
2023-01-09T13:56:14.607Z,101165.34
2023-01-09T13:59:00.331Z,101181.16
2023-01-09T14:01:34.633Z,101159.03
2023-01-09T14:04:15.005Z,101159.03
2023-01-09T14:06:45.045Z,101145.75
2023-01-09T14:09:20.350Z,101137.75
2023-01-09T14:11:49.517Z,101139.22
2023-01-09T14:14:29.030Z,101146.38
2023-01-09T14:16:59.273Z,101137.59
2023-01-09T14:19:39.106Z,101146.38
2023-01-09T14:22:07.938Z,101129.09
2023-01-09T14:24:47.213Z,101135.00
2023-01-09T14:28:03.753Z,101136.66
2023-01-09T14:30:34.416Z,101121.44
2023-01-09T14:33:22.462Z,101105.38
2023-01-09T14:36:01.207Z,101119.03
2023-01-09T14:38:37.842Z,101113.88
2023-01-09T14:42:06.261Z,101119.03
2023-01-09T14:44:33.989Z,101102.25
2023-01-09T14:47:15.089Z,101100.66
2023-01-09T14:49:46.368Z,101086.25
2023-01-09T14:52:54.502Z,101085.38
2023-01-09T14:55:38.668Z,101094.13
2023-01-09T14:58:32.936Z,101092.47
2023-01-09T15:01:25.773Z,101088.34
2023-01-09T15:04:02.786Z,101081.28
2023-01-09T15:06:33.710Z,101084.25
2023-01-09T15:09:07.835Z,101071.31
2023-01-09T15:11:39.548Z,101072.81
2023-01-09T15:14:08.980Z,101056.13
2023-01-09T15:16:36.743Z,101066.50
2023-01-09T15:19:08.157Z,101083.31
2023-01-09T15:21:35.313Z,101073.00
2023-01-09T15:24:22.840Z,101076.81
2023-01-09T15:26:55.478Z,101066.88
2023-01-09T15:29:23.153Z,101046.03
2023-01-09T15:31:55.737Z,101060.72
2023-01-09T15:34:25.412Z,101064.00
2023-01-09T15:36:53.600Z,101060.81
2023-01-09T15:39:36.177Z,101065.63
2023-01-09T15:42:22.544Z,101075.31
2023-01-09T15:44:53.843Z,101076.75
2023-01-09T15:47:24.564Z,101081.13
2023-01-09T15:49:52.624Z,101066.69
2023-01-09T15:52:21.907Z,101074.09
2023-01-09T15:54:49.414Z,101055.50
2023-01-09T15:57:25.956Z,101065.28
2023-01-09T15:59:54.552Z,101065.94
2023-01-09T16:02:41.533Z,101056.31
2023-01-09T16:05:16.387Z,101049.81
2023-01-09T16:07:51.795Z,101052.19
2023-01-09T16:10:32.899Z,101051.47
2023-01-09T16:13:01.600Z,101053.94
2023-01-09T16:15:34.737Z,101050.31
2023-01-09T16:18:14.187Z,101056.19
2023-01-09T16:20:42.470Z,101054.63
2023-01-09T16:23:28.904Z,101043.78
2023-01-09T16:26:20.046Z,101020.53
2023-01-09T16:28:47.288Z,101040.38
2023-01-09T16:31:24.469Z,101029.97
2023-01-09T16:33:59.206Z,101030.97
2023-01-09T16:36:28.065Z,101020.50
2023-01-09T16:38:57.379Z,101033.25
2023-01-09T16:41:43.035Z,101028.91
2023-01-09T16:44:10.832Z,101021.53
2023-01-09T16:46:43.818Z,101014.16
2023-01-09T16:49:20.132Z,101003.34
2023-01-09T16:51:48.409Z,101028.00
2023-01-09T16:54:16.446Z,101007.03
2023-01-09T16:56:45.734Z,101004.84
2023-01-09T16:59:14.615Z,101019.56
2023-01-09T17:01:43.483Z,101009.16
2023-01-09T17:04:12.845Z,101013.56
2023-01-09T17:06:41.907Z,101001.97
2023-01-09T17:09:14.367Z,101009.22
2023-01-09T17:11:42.327Z,101015.91
2023-01-09T17:14:13.485Z,101007.03
2023-01-09T17:16:46.177Z,101009.34
2023-01-09T17:19:20.721Z,100992.59
2023-01-09T17:21:48.541Z,101002.03
2023-01-09T17:24:34.897Z,100992.28
2023-01-09T17:27:21.890Z,100982.13
2023-01-09T17:29:54.999Z,100967.34
2023-01-09T17:32:22.331Z,100960.00
2023-01-09T17:34:51.897Z,100946.22
2023-01-09T17:37:19.862Z,100954.06
2023-01-09T17:39:47.361Z,100906.13
2023-01-09T17:42:14.679Z,100939.50
2023-01-09T17:44:41.885Z,100933.50
2023-01-09T17:47:15.745Z,100935.88
2023-01-09T17:49:43.730Z,100939.56
2023-01-09T17:52:11.220Z,100916.69
2023-01-09T17:54:39.063Z,100934.66
2023-01-09T17:57:07.919Z,100936.19
2023-01-09T17:59:35.363Z,100944.88
2023-01-09T18:02:02.725Z,100925.19
2023-01-09T18:04:30.020Z,100924.56
2023-01-09T18:06:57.388Z,100942.59
2023-01-09T18:09:24.706Z,100952.22
2023-01-09T18:11:51.852Z,100960.31
2023-01-09T18:14:19.022Z,100957.56
2023-01-09T18:16:46.409Z,100954.66
2023-01-09T18:19:13.736Z,100940.69
2023-01-09T18:21:41.002Z,100932.75
2023-01-09T18:24:09.030Z,100904.63
2023-01-09T18:26:36.337Z,100921.38
2023-01-09T18:29:03.904Z,100920.63
2023-01-09T18:31:31.429Z,100921.63
2023-01-09T18:34:02.535Z,100925.91
2023-01-09T18:36:30.383Z,100923.09
2023-01-09T18:39:03.973Z,100918.09
2023-01-09T18:41:31.595Z,100926.16
2023-01-09T18:44:00.888Z,100919.22
2023-01-09T18:46:32.282Z,100932.09
2023-01-09T18:49:02.735Z,100913.13
2023-01-09T18:51:30.268Z,100908.34
2023-01-09T18:53:58.816Z,100909.16
2023-01-09T18:56:26.559Z,100921.38
2023-01-09T18:58:57.939Z,100917.81
2023-01-09T19:01:30.200Z,100929.94
2023-01-09T19:03:59.385Z,100923.56
2023-01-09T19:06:27.968Z,100908.69
2023-01-09T19:08:55.520Z,100917.72
2023-01-09T19:11:22.750Z,100912.69
2023-01-09T19:13:50.812Z,100901.00
2023-01-09T19:16:18.402Z,100892.00
2023-01-09T19:18:46.138Z,100899.53
2023-01-09T19:21:22.489Z,100907.75
2023-01-09T19:23:49.986Z,100903.31
2023-01-09T19:26:27.883Z,100892.50
2023-01-09T19:28:57.691Z,100883.53
2023-01-09T19:31:28.289Z,100879.41
2023-01-09T19:33:55.895Z,100872.72
2023-01-09T19:36:23.264Z,100861.44
2023-01-09T19:38:56.609Z,100867.84
2023-01-09T19:41:23.666Z,100872.41
2023-01-09T19:43:51.409Z,100867.78
2023-01-09T19:46:24.310Z,100851.06
2023-01-09T19:48:52.618Z,100844.34
2023-01-09T19:51:21.402Z,100837.84
2023-01-09T19:54:03.465Z,100820.50
2023-01-09T19:56:35.614Z,100834.16
2023-01-09T19:59:04.682Z,100815.84
2023-01-09T20:01:37.782Z,100790.50
2023-01-09T20:04:10.245Z,100809.47
2023-01-09T20:06:41.553Z,100800.06
2023-01-09T20:09:11.270Z,100822.38
2023-01-09T20:11:44.741Z,100813.59
2023-01-09T20:14:13.996Z,100803.31
2023-01-09T20:16:42.244Z,100809.03
2023-01-09T20:19:12.133Z,100800.28
2023-01-09T20:21:39.471Z,100799.56
2023-01-09T20:24:07.949Z,100786.63
2023-01-09T20:26:36.237Z,100781.50
2023-01-09T20:29:04.185Z,100759.06
2023-01-09T20:31:32.605Z,100764.88
2023-01-09T20:34:00.398Z,100752.66
2023-01-09T20:36:31.921Z,100760.47
2023-01-09T20:39:04.507Z,100774.09
2023-01-09T20:41:31.991Z,100753.47
2023-01-09T20:44:05.940Z,100752.00
2023-01-09T20:46:41.867Z,100753.28
2023-01-09T20:49:12.797Z,100745.72
2023-01-09T20:51:52.207Z,100747.28
2023-01-09T20:54:21.652Z,100733.84
2023-01-09T20:56:49.177Z,100746.69
2023-01-09T20:59:20.374Z,100744.41
2023-01-09T21:01:47.723Z,100730.53
2023-01-09T21:04:18.194Z,100736.19
2023-01-09T21:06:45.328Z,100752.81
2023-01-09T21:09:12.515Z,100740.19
2023-01-09T21:11:39.953Z,100746.06
2023-01-09T21:14:07.299Z,100747.50
2023-01-09T21:16:34.479Z,100748.97
2023-01-09T21:19:01.738Z,100726.13
2023-01-09T21:21:29.468Z,100744.34
2023-01-09T21:23:58.769Z,100742.19
2023-01-09T21:26:29.040Z,100756.97
2023-01-09T21:28:58.290Z,100736.34
2023-01-09T21:31:34.743Z,100754.19
2023-01-09T21:34:05.123Z,100750.75
2023-01-09T21:36:32.691Z,100759.47
2023-01-09T21:39:00.423Z,100749.75
2023-01-09T21:41:46.190Z,100751.19
2023-01-09T21:44:35.108Z,100675.88
2023-01-09T21:47:03.370Z,100728.44
2023-01-09T21:49:35.353Z,100725.16
2023-01-09T21:52:04.308Z,100712.97
2023-01-09T21:54:31.725Z,100716.88
2023-01-09T21:56:59.422Z,100729.81
2023-01-09T21:59:26.943Z,100740.31
2023-01-09T22:01:54.282Z,100715.50
2023-01-09T22:04:26.142Z,100674.91
2023-01-09T22:06:53.402Z,100696.09
2023-01-09T22:09:20.668Z,100694.41
2023-01-09T22:11:47.836Z,100708.19
2023-01-09T22:14:18.238Z,100677.44
2023-01-09T22:16:46.392Z,100690.91
2023-01-09T22:19:14.789Z,100685.59
2023-01-09T22:21:42.037Z,100672.22
2023-01-09T22:24:13.528Z,100640.03
2023-01-09T22:26:40.694Z,100661.19
2023-01-09T22:29:07.883Z,100644.84
2023-01-09T22:31:35.396Z,100637.47
2023-01-09T22:34:02.796Z,100646.84
2023-01-09T22:36:31.308Z,100655.66
2023-01-09T22:39:00.680Z,100649.69
2023-01-09T22:41:29.890Z,100679.47
2023-01-09T22:43:57.889Z,100667.41
2023-01-09T22:46:25.228Z,100670.72
2023-01-09T22:48:52.509Z,100658.50
2023-01-09T22:51:21.643Z,100659.09
2023-01-09T22:53:49.446Z,100651.53
2023-01-09T22:56:19.733Z,100622.13
2023-01-09T22:58:54.308Z,100642.88
2023-01-09T23:01:22.824Z,100633.34
2023-01-09T23:03:50.426Z,100618.75
2023-01-09T23:06:20.927Z,100624.38
2023-01-09T23:08:50.823Z,100614.28
2023-01-09T23:11:41.859Z,100638.56
2023-01-09T23:14:10.402Z,100601.16
2023-01-09T23:16:37.942Z,100598.16
2023-01-09T23:19:14.533Z,100602.09
2023-01-09T23:21:42.684Z,100593.44
2023-01-09T23:24:09.972Z,100600.88
2023-01-09T23:26:40.847Z,100590.94
2023-01-09T23:29:08.189Z,100597.72
2023-01-09T23:31:35.718Z,100605.44
2023-01-09T23:34:04.214Z,100621.09
2023-01-09T23:36:31.601Z,100624.53
2023-01-09T23:38:59.817Z,100613.22
2023-01-09T23:41:45.808Z,100641.13
2023-01-09T23:44:13.003Z,100625.63
2023-01-09T23:46:40.229Z,100641.75
2023-01-09T23:49:07.400Z,100621.03
2023-01-09T23:51:34.564Z,100620.63
2023-01-09T23:54:01.868Z,100621.34
2023-01-09T23:56:30.871Z,100613.06
2023-01-09T23:58:58.130Z,100616.22
